sensor_id;sensor_type;location;lat;lon;timestamp;pressure;altitude;pressure_sealevel;temperature;humidity
20909;BME280;10614;53.198;6.570;2023-07-09T00:00:55;101725.47;;;24.39;60.55
20909;BME280;10614;53.198;6.570;2023-07-09T00:03:01;101754.81;;;24.54;60.58
20909;BME280;10614;53.198;6.570;2023-07-09T00:05:11;101757.75;;;24.51;60.51
20909;BME280;10614;53.198;6.570;2023-07-09T00:07:19;101753.59;;;24.47;60.66
20909;BME280;10614;53.198;6.570;2023-07-09T00:09:26;101717.97;;;24.22;60.73
20909;BME280;10614;53.198;6.570;2023-07-09T00:11:30;101780.00;;;24.53;60.86
20909;BME280;10614;53.198;6.570;2023-07-09T00:13:32;101730.97;;;24.17;61.36
20909;BME280;10614;53.198;6.570;2023-07-09T00:15:35;101745.00;;;24.20;61.36
20909;BME280;10614;53.198;6.570;2023-07-09T00:17:40;101754.06;;;24.19;61.33
20909;BME280;10614;53.198;6.570;2023-07-09T00:19:42;101725.88;;;24.02;61.83
20909;BME280;10614;53.198;6.570;2023-07-09T00:21:45;101743.22;;;24.10;61.92
20909;BME280;10614;53.198;6.570;2023-07-09T00:23:47;101754.72;;;24.12;62.00
20909;BME280;10614;53.198;6.570;2023-07-09T00:25:50;101695.66;;;23.78;62.29
20909;BME280;10614;53.198;6.570;2023-07-09T00:27:53;101777.44;;;24.19;62.31
20909;BME280;10614;53.198;6.570;2023-07-09T00:29:56;101733.75;;;23.83;62.47
20909;BME280;10614;53.198;6.570;2023-07-09T00:31:58;101787.19;;;24.20;63.02
20909;BME280;10614;53.198;6.570;2023-07-09T00:34:00;101743.28;;;23.87;62.60
20909;BME280;10614;53.198;6.570;2023-07-09T00:36:11;101801.75;;;24.17;62.85
20909;BME280;10614;53.198;6.570;2023-07-09T00:38:17;101695.69;;;23.55;62.60
20909;BME280;10614;53.198;6.570;2023-07-09T00:40:22;101732.31;;;23.79;62.97
20909;BME280;10614;53.198;6.570;2023-07-09T00:42:26;101766.72;;;23.96;62.93
20909;BME280;10614;53.198;6.570;2023-07-09T00:44:31;101758.56;;;23.87;63.11
20909;BME280;10614;53.198;6.570;2023-07-09T00:49:26;101769.81;;;23.80;63.64
20909;BME280;10614;53.198;6.570;2023-07-09T00:51:30;101767.72;;;23.73;63.59
20909;BME280;10614;53.198;6.570;2023-07-09T00:53:35;101703.66;;;23.34;64.19
20909;BME280;10614;53.198;6.570;2023-07-09T00:55:41;101749.28;;;23.57;63.95
20909;BME280;10614;53.198;6.570;2023-07-09T00:57:47;101753.31;;;23.63;63.74
20909;BME280;10614;53.198;6.570;2023-07-09T01:00:02;101751.84;;;23.58;64.33
20909;BME280;10614;53.198;6.570;2023-07-09T01:02:09;101735.75;;;23.47;64.37
20909;BME280;10614;53.198;6.570;2023-07-09T01:04:16;101739.41;;;23.46;64.27
20909;BME280;10614;53.198;6.570;2023-07-09T01:06:22;101748.91;;;23.50;64.37
20909;BME280;10614;53.198;6.570;2023-07-09T01:08:29;101750.88;;;23.48;64.60
20909;BME280;10614;53.198;6.570;2023-07-09T01:10:33;101740.63;;;23.42;64.94
20909;BME280;10614;53.198;6.570;2023-07-09T01:12:35;101695.84;;;23.09;64.88
20909;BME280;10614;53.198;6.570;2023-07-09T01:14:41;101691.69;;;23.05;65.15
20909;BME280;10614;53.198;6.570;2023-07-09T01:16:52;101725.38;;;23.20;65.27
20909;BME280;10614;53.198;6.570;2023-07-09T01:18:57;101692.91;;;23.01;65.74
20909;BME280;10614;53.198;6.570;2023-07-09T01:21:12;101787.16;;;23.54;65.51
20909;BME280;10614;53.198;6.570;2023-07-09T01:23:15;101696.66;;;22.98;65.47
20909;BME280;10614;53.198;6.570;2023-07-09T01:25:18;101724.03;;;23.14;65.75
20909;BME280;10614;53.198;6.570;2023-07-09T01:27:23;101748.09;;;23.27;65.93
20909;BME280;10614;53.198;6.570;2023-07-09T01:29:30;101781.19;;;23.39;66.09
20909;BME280;10614;53.198;6.570;2023-07-09T01:31:32;101730.75;;;23.09;65.89
20909;BME280;10614;53.198;6.570;2023-07-09T01:33:34;101725.22;;;22.99;65.86
20909;BME280;10614;53.198;6.570;2023-07-09T01:35:39;101785.69;;;23.38;65.89
20909;BME280;10614;53.198;6.570;2023-07-09T01:37:45;101685.16;;;22.85;66.32
20909;BME280;10614;53.198;6.570;2023-07-09T01:39:49;101775.94;;;23.37;66.02
20909;BME280;10614;53.198;6.570;2023-07-09T01:41:51;101714.50;;;22.99;66.16
20909;BME280;10614;53.198;6.570;2023-07-09T01:43:57;101753.31;;;23.17;65.87
20909;BME280;10614;53.198;6.570;2023-07-09T01:45:59;101698.47;;;22.86;66.25
20909;BME280;10614;53.198;6.570;2023-07-09T01:48:02;101780.81;;;23.32;66.03
20909;BME280;10614;53.198;6.570;2023-07-09T01:50:06;101762.84;;;23.22;66.13
20909;BME280;10614;53.198;6.570;2023-07-09T01:52:10;101711.16;;;22.84;66.22
20909;BME280;10614;53.198;6.570;2023-07-09T01:54:15;101732.44;;;22.99;65.83
20909;BME280;10614;53.198;6.570;2023-07-09T01:56:17;101773.59;;;23.22;66.32
20909;BME280;10614;53.198;6.570;2023-07-09T01:58:22;101692.22;;;22.63;66.43
20909;BME280;10614;53.198;6.570;2023-07-09T02:00:26;101778.84;;;23.12;66.60
20909;BME280;10614;53.198;6.570;2023-07-09T02:02:32;101689.78;;;22.60;66.30
20909;BME280;10614;53.198;6.570;2023-07-09T02:04:36;101741.53;;;22.85;66.25
20909;BME280;10614;53.198;6.570;2023-07-09T02:06:38;101706.88;;;22.70;66.36
20909;BME280;10614;53.198;6.570;2023-07-09T02:08:40;101704.88;;;22.61;66.83
20909;BME280;10614;53.198;6.570;2023-07-09T02:10:45;101727.38;;;22.71;67.16
20909;BME280;10614;53.198;6.570;2023-07-09T02:12:50;101771.22;;;22.94;67.39
20909;BME280;10614;53.198;6.570;2023-07-09T02:14:55;101774.50;;;22.87;67.31
20909;BME280;10614;53.198;6.570;2023-07-09T02:17:02;101722.34;;;22.55;67.52
20909;BME280;10614;53.198;6.570;2023-07-09T02:19:06;101735.84;;;22.54;67.73
20909;BME280;10614;53.198;6.570;2023-07-09T02:21:09;101744.41;;;22.59;68.39
20909;BME280;10614;53.198;6.570;2023-07-09T02:23:11;101738.88;;;22.49;68.71
20909;BME280;10614;53.198;6.570;2023-07-09T02:25:13;101738.53;;;22.54;68.49
20909;BME280;10614;53.198;6.570;2023-07-09T02:27:20;101714.84;;;22.37;68.84
20909;BME280;10614;53.198;6.570;2023-07-09T02:29:25;101733.53;;;22.49;68.54
20909;BME280;10614;53.198;6.570;2023-07-09T02:31:28;101701.28;;;22.27;68.81
20909;BME280;10614;53.198;6.570;2023-07-09T02:33:37;101742.41;;;22.50;68.88
20909;BME280;10614;53.198;6.570;2023-07-09T02:35:40;101730.44;;;22.43;68.97
20909;BME280;10614;53.198;6.570;2023-07-09T02:37:45;101670.66;;;22.05;68.95
20909;BME280;10614;53.198;6.570;2023-07-09T02:39:55;101771.97;;;22.61;68.98
20909;BME280;10614;53.198;6.570;2023-07-09T02:41:57;101670.06;;;22.02;68.56
20909;BME280;10614;53.198;6.570;2023-07-09T02:44:04;101753.38;;;22.47;69.07
20909;BME280;10614;53.198;6.570;2023-07-09T02:46:10;101675.88;;;21.96;69.25
20909;BME280;10614;53.198;6.570;2023-07-09T02:48:14;101661.22;;;21.88;69.42
20909;BME280;10614;53.198;6.570;2023-07-09T02:50:18;101673.66;;;21.89;69.21
20909;BME280;10614;53.198;6.570;2023-07-09T02:52:24;101746.53;;;22.31;69.75
20909;BME280;10614;53.198;6.570;2023-07-09T02:54:36;101655.19;;;21.74;69.75
20909;BME280;10614;53.198;6.570;2023-07-09T02:56:40;101716.88;;;22.09;69.46
20909;BME280;10614;53.198;6.570;2023-07-09T02:58:41;101719.66;;;22.07;69.02
20909;BME280;10614;53.198;6.570;2023-07-09T03:00:52;101766.25;;;22.30;69.65
20909;BME280;10614;53.198;6.570;2023-07-09T03:02:56;101709.63;;;21.98;69.62
20909;BME280;10614;53.198;6.570;2023-07-09T03:04:59;101675.53;;;21.76;70.18
20909;BME280;10614;53.198;6.570;2023-07-09T03:07:01;101748.63;;;22.15;69.91
20909;BME280;10614;53.198;6.570;2023-07-09T03:09:04;101677.91;;;21.68;69.93
20909;BME280;10614;53.198;6.570;2023-07-09T03:11:13;101751.28;;;22.15;69.86
20909;BME280;10614;53.198;6.570;2023-07-09T03:13:16;101719.22;;;21.89;69.71
20909;BME280;10614;53.198;6.570;2023-07-09T03:15:20;101743.19;;;22.04;70.34
20909;BME280;10614;53.198;6.570;2023-07-09T03:17:25;101712.63;;;21.82;70.55
20909;BME280;10614;53.198;6.570;2023-07-09T03:19:28;101738.41;;;21.96;70.72
20909;BME280;10614;53.198;6.570;2023-07-09T03:21:30;101728.34;;;21.87;70.04
20909;BME280;10614;53.198;6.570;2023-07-09T03:23:33;101737.13;;;21.89;70.02
20909;BME280;10614;53.198;6.570;2023-07-09T03:25:40;101676.06;;;21.44;70.17
20909;BME280;10614;53.198;6.570;2023-07-09T03:27:47;101731.81;;;21.76;70.54
20909;BME280;10614;53.198;6.570;2023-07-09T03:29:49;101780.72;;;22.04;70.08
20909;BME280;10614;53.198;6.570;2023-07-09T03:31:52;101664.81;;;21.39;70.11
20909;BME280;10614;53.198;6.570;2023-07-09T03:34:00;101784.34;;;22.03;70.16
20909;BME280;10614;53.198;6.570;2023-07-09T03:36:03;101727.78;;;21.70;70.80
20909;BME280;10614;53.198;6.570;2023-07-09T03:38:07;101776.44;;;22.01;70.68
20909;BME280;10614;53.198;6.570;2023-07-09T03:40:10;101730.66;;;21.67;70.36
20909;BME280;10614;53.198;6.570;2023-07-09T03:42:18;101676.41;;;21.40;70.80
20909;BME280;10614;53.198;6.570;2023-07-09T03:44:21;101751.84;;;21.83;70.32
20909;BME280;10614;53.198;6.570;2023-07-09T03:46:23;101779.47;;;21.97;70.89
20909;BME280;10614;53.198;6.570;2023-07-09T03:48:28;101785.78;;;21.96;70.48
20909;BME280;10614;53.198;6.570;2023-07-09T03:50:31;101712.91;;;21.54;70.84
20909;BME280;10614;53.198;6.570;2023-07-09T03:52:33;101737.41;;;21.73;71.25
20909;BME280;10614;53.198;6.570;2023-07-09T03:54:36;101688.38;;;21.34;70.52
20909;BME280;10614;53.198;6.570;2023-07-09T03:56:39;101689.78;;;21.40;71.23
20909;BME280;10614;53.198;6.570;2023-07-09T03:58:41;101731.41;;;21.69;71.21
20909;BME280;10614;53.198;6.570;2023-07-09T04:00:43;101708.41;;;21.54;71.10
20909;BME280;10614;53.198;6.570;2023-07-09T04:02:45;101772.16;;;21.99;71.05
20909;BME280;10614;53.198;6.570;2023-07-09T04:04:48;101784.47;;;22.01;70.55
20909;BME280;10614;53.198;6.570;2023-07-09T04:06:52;101750.84;;;21.84;71.01
20909;BME280;10614;53.198;6.570;2023-07-09T04:08:55;101741.22;;;21.82;70.58
20909;BME280;10614;53.198;6.570;2023-07-09T04:10:59;101777.06;;;22.05;71.15
20909;BME280;10614;53.198;6.570;2023-07-09T04:13:02;101741.97;;;21.84;70.75
20909;BME280;10614;53.198;6.570;2023-07-09T04:15:05;101704.94;;;21.65;70.47
20909;BME280;10614;53.198;6.570;2023-07-09T04:17:08;101750.41;;;21.90;70.89
20909;BME280;10614;53.198;6.570;2023-07-09T04:19:10;101779.63;;;22.06;70.81
20909;BME280;10614;53.198;6.570;2023-07-09T04:21:15;101710.63;;;21.73;71.05
20909;BME280;10614;53.198;6.570;2023-07-09T04:23:22;101675.72;;;21.49;70.63
20909;BME280;10614;53.198;6.570;2023-07-09T04:25:28;101770.59;;;22.07;71.36
20909;BME280;10614;53.198;6.570;2023-07-09T04:27:30;101719.06;;;21.80;71.47
20909;BME280;10614;53.198;6.570;2023-07-09T04:29:35;101689.63;;;21.67;71.07
20909;BME280;10614;53.198;6.570;2023-07-09T04:31:39;101727.63;;;21.85;71.48
20909;BME280;10614;53.198;6.570;2023-07-09T04:33:44;101779.41;;;22.22;71.07
20909;BME280;10614;53.198;6.570;2023-07-09T04:35:49;101773.34;;;22.19;71.29
20909;BME280;10614;53.198;6.570;2023-07-09T04:37:54;101740.50;;;22.04;71.29
20909;BME280;10614;53.198;6.570;2023-07-09T04:40:01;101721.34;;;21.97;71.11
20909;BME280;10614;53.198;6.570;2023-07-09T04:42:05;101780.41;;;22.32;70.68
20909;BME280;10614;53.198;6.570;2023-07-09T04:44:08;101700.47;;;21.89;70.27
20909;BME280;10614;53.198;6.570;2023-07-09T04:46:10;101687.63;;;21.82;71.33
20909;BME280;10614;53.198;6.570;2023-07-09T04:48:12;101737.88;;;22.15;70.23
20909;BME280;10614;53.198;6.570;2023-07-09T04:50:14;101773.50;;;22.41;71.08
20909;BME280;10614;53.198;6.570;2023-07-09T04:52:16;101760.78;;;22.32;70.45
20909;BME280;10614;53.198;6.570;2023-07-09T04:54:25;101781.31;;;22.44;70.60
20909;BME280;10614;53.198;6.570;2023-07-09T04:56:30;101779.47;;;22.45;70.86
20909;BME280;10614;53.198;6.570;2023-07-09T04:58:34;101717.63;;;22.11;70.63
20909;BME280;10614;53.198;6.570;2023-07-09T05:00:39;101725.19;;;22.17;71.09
20909;BME280;10614;53.198;6.570;2023-07-09T05:02:55;101776.59;;;22.48;71.00
20909;BME280;10614;53.198;6.570;2023-07-09T05:04:57;101690.75;;;22.00;70.86
20909;BME280;10614;53.198;6.570;2023-07-09T05:06:59;101786.13;;;22.63;71.33
20909;BME280;10614;53.198;6.570;2023-07-09T05:09:01;101789.47;;;22.67;71.38
20909;BME280;10614;53.198;6.570;2023-07-09T05:11:07;101722.13;;;22.34;71.05
20909;BME280;10614;53.198;6.570;2023-07-09T05:13:11;101732.16;;;22.44;71.27
20909;BME280;10614;53.198;6.570;2023-07-09T05:17:17;101767.78;;;22.81;70.86
20909;BME280;10614;53.198;6.570;2023-07-09T05:19:19;101748.50;;;22.76;70.59
20909;BME280;10614;53.198;6.570;2023-07-09T05:21:21;101757.88;;;22.82;70.70
20909;BME280;10614;53.198;6.570;2023-07-09T05:23:25;101766.06;;;22.91;70.54
20909;BME280;10614;53.198;6.570;2023-07-09T05:25:27;101746.78;;;22.86;70.26
20909;BME280;10614;53.198;6.570;2023-07-09T05:27:29;101719.56;;;22.80;70.14
20909;BME280;10614;53.198;6.570;2023-07-09T05:29:33;101744.97;;;22.98;70.20
20909;BME280;10614;53.198;6.570;2023-07-09T05:31:35;101751.72;;;23.04;69.79
20909;BME280;10614;53.198;6.570;2023-07-09T05:33:37;101738.28;;;23.04;69.13
20909;BME280;10614;53.198;6.570;2023-07-09T05:35:42;101720.31;;;22.93;69.40
20909;BME280;10614;53.198;6.570;2023-07-09T05:37:44;101795.13;;;23.44;69.04
20909;BME280;10614;53.198;6.570;2023-07-09T05:39:46;101727.94;;;23.10;69.50
20909;BME280;10614;53.198;6.570;2023-07-09T05:41:50;101728.66;;;23.12;69.40
20909;BME280;10614;53.198;6.570;2023-07-09T05:43:56;101758.72;;;23.40;69.28
20909;BME280;10614;53.198;6.570;2023-07-09T05:46:01;101787.66;;;23.59;68.99
20909;BME280;10614;53.198;6.570;2023-07-09T05:48:04;101696.94;;;23.06;68.84
20909;BME280;10614;53.198;6.570;2023-07-09T05:50:07;101786.28;;;23.65;68.39
20909;BME280;10614;53.198;6.570;2023-07-09T05:52:09;101756.50;;;23.56;68.62
20909;BME280;10614;53.198;6.570;2023-07-09T05:54:16;101742.34;;;23.43;68.15
20909;BME280;10614;53.198;6.570;2023-07-09T05:56:20;101805.75;;;23.91;68.36
20909;BME280;10614;53.198;6.570;2023-07-09T05:58:23;101802.78;;;23.94;68.10
20909;BME280;10614;53.198;6.570;2023-07-09T06:00:28;101713.50;;;23.45;68.26
20909;BME280;10614;53.198;6.570;2023-07-09T06:02:32;101714.50;;;23.44;68.14
20909;BME280;10614;53.198;6.570;2023-07-09T06:04:37;101803.16;;;24.00;68.17
20909;BME280;10614;53.198;6.570;2023-07-09T06:06:42;101799.09;;;23.95;67.85
20909;BME280;10614;53.198;6.570;2023-07-09T06:08:44;101795.84;;;23.91;68.37
20909;BME280;10614;53.198;6.570;2023-07-09T06:10:51;101807.06;;;23.96;68.66
20909;BME280;10614;53.198;6.570;2023-07-09T06:12:56;101717.41;;;23.41;68.77
20909;BME280;10614;53.198;6.570;2023-07-09T06:14:59;101734.16;;;23.45;68.91
20909;BME280;10614;53.198;6.570;2023-07-09T06:17:03;101814.03;;;23.88;69.46
20909;BME280;10614;53.198;6.570;2023-07-09T06:19:12;101786.53;;;23.73;69.33
20909;BME280;10614;53.198;6.570;2023-07-09T06:21:14;101767.00;;;23.59;69.42
20909;BME280;10614;53.198;6.570;2023-07-09T06:23:16;101782.00;;;23.62;69.78
20909;BME280;10614;53.198;6.570;2023-07-09T06:25:18;101814.78;;;23.90;69.84
20909;BME280;10614;53.198;6.570;2023-07-09T06:27:20;101813.53;;;23.94;69.96
20909;BME280;10614;53.198;6.570;2023-07-09T06:29:23;101736.22;;;23.52;70.33
20909;BME280;10614;53.198;6.570;2023-07-09T06:31:27;101822.19;;;24.09;70.27
20909;BME280;10614;53.198;6.570;2023-07-09T06:33:29;101771.28;;;23.85;70.10
20909;BME280;10614;53.198;6.570;2023-07-09T06:35:33;101801.78;;;24.06;69.98
20909;BME280;10614;53.198;6.570;2023-07-09T06:37:35;101824.72;;;24.33;70.45
20909;BME280;10614;53.198;6.570;2023-07-09T06:39:41;101780.34;;;24.16;70.44
20909;BME280;10614;53.198;6.570;2023-07-09T06:41:44;101795.81;;;24.35;70.28
20909;BME280;10614;53.198;6.570;2023-07-09T06:43:44;101800.56;;;24.42;70.03
20909;BME280;10614;53.198;6.570;2023-07-09T06:45:52;101799.34;;;24.47;69.55
20909;BME280;10614;53.198;6.570;2023-07-09T06:47:54;101828.75;;;24.71;69.38
20909;BME280;10614;53.198;6.570;2023-07-09T06:49:56;101831.28;;;24.72;69.21
20909;BME280;10614;53.198;6.570;2023-07-09T06:52:00;101833.03;;;24.73;69.46
20909;BME280;10614;53.198;6.570;2023-07-09T06:54:05;101805.31;;;24.61;69.58
20909;BME280;10614;53.198;6.570;2023-07-09T06:56:10;101827.25;;;24.78;69.62
20909;BME280;10614;53.198;6.570;2023-07-09T06:58:12;101792.69;;;24.62;69.63
20909;BME280;10614;53.198;6.570;2023-07-09T07:00:15;101820.88;;;24.79;69.85
20909;BME280;10614;53.198;6.570;2023-07-09T07:02:17;101828.56;;;24.83;69.89
20909;BME280;10614;53.198;6.570;2023-07-09T07:04:20;101818.06;;;24.80;70.38
20909;BME280;10614;53.198;6.570;2023-07-09T07:06:23;101831.59;;;24.90;70.31
20909;BME280;10614;53.198;6.570;2023-07-09T07:08:40;101741.38;;;24.42;70.47
20909;BME280;10614;53.198;6.570;2023-07-09T07:10:42;101794.53;;;24.82;70.48
20909;BME280;10614;53.198;6.570;2023-07-09T07:12:45;101805.50;;;24.91;70.35
20909;BME280;10614;53.198;6.570;2023-07-09T07:14:47;101778.38;;;24.82;70.71
20909;BME280;10614;53.198;6.570;2023-07-09T07:16:50;101827.84;;;25.23;70.47
20909;BME280;10614;53.198;6.570;2023-07-09T07:18:52;101787.63;;;25.11;70.11
20909;BME280;10614;53.198;6.570;2023-07-09T07:20:55;101804.78;;;25.31;69.60
20909;BME280;10614;53.198;6.570;2023-07-09T07:22:58;101797.84;;;25.38;69.48
20909;BME280;10614;53.198;6.570;2023-07-09T07:25:05;101843.13;;;25.75;68.94
20909;BME280;10614;53.198;6.570;2023-07-09T07:27:08;101817.00;;;25.75;68.63
20909;BME280;10614;53.198;6.570;2023-07-09T07:29:11;101826.19;;;25.94;67.83
20909;BME280;10614;53.198;6.570;2023-07-09T07:31:15;101780.69;;;25.69;66.91
20909;BME280;10614;53.198;6.570;2023-07-09T07:33:19;101798.38;;;25.93;66.86
20909;BME280;10614;53.198;6.570;2023-07-09T07:35:21;101846.13;;;26.22;66.31
20909;BME280;10614;53.198;6.570;2023-07-09T07:37:24;101801.38;;;26.00;66.51
20909;BME280;10614;53.198;6.570;2023-07-09T07:39:28;101756.13;;;25.73;66.03
20909;BME280;10614;53.198;6.570;2023-07-09T07:41:33;101800.22;;;25.93;66.40
20909;BME280;10614;53.198;6.570;2023-07-09T07:43:35;101781.41;;;25.81;66.32
20909;BME280;10614;53.198;6.570;2023-07-09T07:45:40;101811.00;;;25.93;67.08
20909;BME280;10614;53.198;6.570;2023-07-09T07:47:45;101851.63;;;26.10;66.69
20909;BME280;10614;53.198;6.570;2023-07-09T07:49:48;101801.44;;;25.79;67.54
20909;BME280;10614;53.198;6.570;2023-07-09T07:51:54;101847.53;;;26.06;67.80
20909;BME280;10614;53.198;6.570;2023-07-09T07:53:57;101811.50;;;25.77;67.77
20909;BME280;10614;53.198;6.570;2023-07-09T07:55:59;101823.66;;;25.92;68.31
20909;BME280;10614;53.198;6.570;2023-07-09T07:58:04;101826.06;;;25.95;69.16
20909;BME280;10614;53.198;6.570;2023-07-09T08:00:07;101780.53;;;25.71;68.68
20909;BME280;10614;53.198;6.570;2023-07-09T08:02:13;101790.50;;;25.80;69.16
20909;BME280;10614;53.198;6.570;2023-07-09T08:04:16;101829.09;;;26.11;69.65
20909;BME280;10614;53.198;6.570;2023-07-09T08:06:18;101855.53;;;26.37;69.49
20909;BME280;10614;53.198;6.570;2023-07-09T08:08:20;101831.66;;;26.32;69.74
20909;BME280;10614;53.198;6.570;2023-07-09T08:10:22;101859.41;;;26.64;69.68
20909;BME280;10614;53.198;6.570;2023-07-09T08:12:37;101852.03;;;26.76;68.85
20909;BME280;10614;53.198;6.570;2023-07-09T08:14:45;101808.13;;;26.54;68.66
20909;BME280;10614;53.198;6.570;2023-07-09T08:16:48;101801.13;;;26.71;68.92
20909;BME280;10614;53.198;6.570;2023-07-09T08:18:49;101816.34;;;26.91;68.32
20909;BME280;10614;53.198;6.570;2023-07-09T08:20:53;101843.88;;;27.14;68.66
20909;BME280;10614;53.198;6.570;2023-07-09T08:22:57;101760.34;;;26.74;68.09
20909;BME280;10614;53.198;6.570;2023-07-09T08:24:59;101813.34;;;27.04;68.16
20909;BME280;10614;53.198;6.570;2023-07-09T08:27:05;101835.91;;;27.23;67.59
20909;BME280;10614;53.198;6.570;2023-07-09T08:29:06;101791.25;;;27.09;67.42
20909;BME280;10614;53.198;6.570;2023-07-09T08:31:10;101821.41;;;27.24;66.59
20909;BME280;10614;53.198;6.570;2023-07-09T08:33:13;101814.72;;;27.28;66.12
20909;BME280;10614;53.198;6.570;2023-07-09T08:35:15;101808.88;;;27.32;67.02
20909;BME280;10614;53.198;6.570;2023-07-09T08:37:18;101836.53;;;27.54;66.54
20909;BME280;10614;53.198;6.570;2023-07-09T08:39:20;101761.25;;;27.12;67.16
20909;BME280;10614;53.198;6.570;2023-07-09T08:41:36;101770.19;;;27.22;66.36
20909;BME280;10614;53.198;6.570;2023-07-09T08:43:51;101810.66;;;27.51;65.18
20909;BME280;10614;53.198;6.570;2023-07-09T08:46:02;101774.00;;;27.29;64.02
20909;BME280;10614;53.198;6.570;2023-07-09T08:48:12;101834.50;;;27.66;62.28
20909;BME280;10614;53.198;6.570;2023-07-09T08:50:20;101786.09;;;27.35;63.53
20909;BME280;10614;53.198;6.570;2023-07-09T08:52:40;101768.34;;;27.32;63.28
20909;BME280;10614;53.198;6.570;2023-07-09T08:54:59;101767.28;;;27.43;63.36
20909;BME280;10614;53.198;6.570;2023-07-09T08:57:15;101782.53;;;27.62;63.53
20909;BME280;10614;53.198;6.570;2023-07-09T08:59:24;101852.66;;;28.11;62.90
20909;BME280;10614;53.198;6.570;2023-07-09T09:01:49;101826.19;;;28.05;62.94
20909;BME280;10614;53.198;6.570;2023-07-09T09:09:37;101846.41;;;28.28;60.89
20909;BME280;10614;53.198;6.570;2023-07-09T09:12:13;101758.94;;;27.82;60.37
20909;BME280;10614;53.198;6.570;2023-07-09T09:14:30;101810.38;;;28.10;60.50
20909;BME280;10614;53.198;6.570;2023-07-09T09:16:57;101814.88;;;28.19;60.06
20909;BME280;10614;53.198;6.570;2023-07-09T09:19:25;101832.97;;;28.36;58.65
20909;BME280;10614;53.198;6.570;2023-07-09T09:21:34;101764.72;;;27.97;59.01
20909;BME280;10614;53.198;6.570;2023-07-09T09:26:48;101775.84;;;28.12;59.93
20909;BME280;10614;53.198;6.570;2023-07-09T09:29:32;101844.13;;;28.51;60.52
20909;BME280;10614;53.198;6.570;2023-07-09T09:31:53;101839.88;;;28.49;60.38
20909;BME280;10614;53.198;6.570;2023-07-09T09:33:56;101822.78;;;28.48;60.07
20909;BME280;10614;53.198;6.570;2023-07-09T09:38:53;101845.81;;;28.70;59.82
20909;BME280;10614;53.198;6.570;2023-07-09T09:40:59;101835.84;;;28.71;59.85
20909;BME280;10614;53.198;6.570;2023-07-09T09:43:10;101850.47;;;28.78;60.01
20909;BME280;10614;53.198;6.570;2023-07-09T09:45:16;101850.00;;;28.82;59.77
20909;BME280;10614;53.198;6.570;2023-07-09T09:47:18;101855.94;;;28.86;59.25
20909;BME280;10614;53.198;6.570;2023-07-09T09:49:20;101855.09;;;28.86;59.42
20909;BME280;10614;53.198;6.570;2023-07-09T09:51:23;101850.00;;;28.82;59.47
20909;BME280;10614;53.198;6.570;2023-07-09T09:53:24;101853.72;;;28.81;59.97
20909;BME280;10614;53.198;6.570;2023-07-09T09:55:30;101862.03;;;28.80;60.36
20909;BME280;10614;53.198;6.570;2023-07-09T09:57:32;101872.69;;;28.81;61.26
20909;BME280;10614;53.198;6.570;2023-07-09T09:59:36;101859.44;;;28.78;61.91
20909;BME280;10614;53.198;6.570;2023-07-09T10:01:38;101862.91;;;28.89;61.82
20909;BME280;10614;53.198;6.570;2023-07-09T10:03:40;101864.78;;;28.88;61.02
20909;BME280;10614;53.198;6.570;2023-07-09T10:05:44;101864.16;;;28.94;60.86
20909;BME280;10614;53.198;6.570;2023-07-09T10:07:56;101867.88;;;28.93;61.32
20909;BME280;10614;53.198;6.570;2023-07-09T10:10:00;101865.16;;;28.93;61.12
20909;BME280;10614;53.198;6.570;2023-07-09T10:12:13;101865.53;;;28.98;60.84
20909;BME280;10614;53.198;6.570;2023-07-09T10:14:28;101863.78;;;29.07;61.15
20909;BME280;10614;53.198;6.570;2023-07-09T10:16:34;101875.38;;;29.17;60.93
20909;BME280;10614;53.198;6.570;2023-07-09T10:18:47;101867.06;;;29.19;60.12
20909;BME280;10614;53.198;6.570;2023-07-09T10:20:57;101876.75;;;29.21;59.67
20909;BME280;10614;53.198;6.570;2023-07-09T10:23:12;101874.59;;;29.25;59.07
20909;BME280;10614;53.198;6.570;2023-07-09T10:25:33;101876.63;;;29.31;58.80
20909;BME280;10614;53.198;6.570;2023-07-09T10:27:52;101873.44;;;29.36;58.22
20909;BME280;10614;53.198;6.570;2023-07-09T10:30:12;101869.25;;;29.41;57.82
20909;BME280;10614;53.198;6.570;2023-07-09T10:32:23;101871.63;;;29.36;57.37
20909;BME280;10614;53.198;6.570;2023-07-09T10:34:34;101869.41;;;29.40;56.83
20909;BME280;10614;53.198;6.570;2023-07-09T10:36:48;101867.75;;;29.47;57.13
20909;BME280;10614;53.198;6.570;2023-07-09T10:39:02;101865.47;;;29.60;57.41
20909;BME280;10614;53.198;6.570;2023-07-09T10:41:09;101854.84;;;29.67;56.54
20909;BME280;10614;53.198;6.570;2023-07-09T10:43:18;101853.00;;;29.76;56.35
20909;BME280;10614;53.198;6.570;2023-07-09T10:45:25;101850.00;;;29.87;56.44
20909;BME280;10614;53.198;6.570;2023-07-09T10:47:30;101841.38;;;29.92;56.21
20909;BME280;10614;53.198;6.570;2023-07-09T10:49:38;101848.53;;;30.01;55.63
20909;BME280;10614;53.198;6.570;2023-07-09T10:51:46;101854.00;;;30.09;54.88
20909;BME280;10614;53.198;6.570;2023-07-09T10:53:55;101844.97;;;30.08;54.88
20909;BME280;10614;53.198;6.570;2023-07-09T10:56:00;101847.06;;;30.23;54.52
20909;BME280;10614;53.198;6.570;2023-07-09T10:58:14;101845.06;;;30.33;55.06
20909;BME280;10614;53.198;6.570;2023-07-09T11:00:30;101857.66;;;30.50;55.75
20909;BME280;10614;53.198;6.570;2023-07-09T11:02:35;101850.72;;;30.64;55.74
20909;BME280;10614;53.198;6.570;2023-07-09T11:04:43;101851.41;;;30.75;55.36
20909;BME280;10614;53.198;6.570;2023-07-09T11:06:48;101841.03;;;30.78;54.12
20909;BME280;10614;53.198;6.570;2023-07-09T11:08:52;101834.25;;;30.82;54.59
20909;BME280;10614;53.198;6.570;2023-07-09T11:10:59;101826.25;;;30.97;54.96
20909;BME280;10614;53.198;6.570;2023-07-09T11:13:05;101821.84;;;31.12;54.69